createdAt,value
2017-07-17T00:02:26.876Z,99.90
2017-07-17T00:04:55.388Z,99.90
2017-07-17T00:07:24.587Z,99.90
2017-07-17T00:09:53.780Z,99.90
2017-07-17T00:12:22.992Z,99.90
2017-07-17T00:14:51.475Z,99.90
2017-07-17T00:17:19.889Z,99.90
2017-07-17T00:19:48.433Z,99.90
2017-07-17T00:22:17.616Z,99.90
2017-07-17T00:24:46.885Z,99.90
2017-07-17T00:27:16.079Z,99.90
2017-07-17T00:29:45.280Z,99.90
2017-07-17T00:32:13.716Z,99.90
2017-07-17T00:34:42.903Z,99.90
2017-07-17T00:37:12.212Z,99.90
2017-07-17T00:39:41.428Z,99.90
2017-07-17T00:42:10.169Z,99.90
2017-07-17T00:44:39.272Z,99.90
2017-07-17T00:47:07.689Z,99.90
2017-07-17T00:49:36.128Z,99.90
2017-07-17T00:52:04.552Z,99.90
2017-07-17T00:54:32.980Z,99.90
2017-07-17T00:57:01.440Z,99.90
2017-07-17T00:59:29.863Z,99.90
2017-07-17T01:01:58.366Z,99.90
2017-07-17T01:04:27.511Z,99.90
2017-07-17T01:06:56.873Z,99.90
2017-07-17T01:09:26.068Z,99.90
2017-07-17T01:11:54.524Z,99.90
2017-07-17T01:14:23.195Z,99.90
2017-07-17T01:16:51.638Z,99.90
2017-07-17T01:19:20.066Z,99.90
2017-07-17T01:21:48.598Z,99.90
2017-07-17T01:24:17.027Z,99.90
2017-07-17T01:26:45.459Z,99.90
2017-07-17T01:29:13.931Z,99.90
2017-07-17T01:31:42.614Z,99.90
2017-07-17T01:34:11.828Z,99.90
2017-07-17T01:36:40.251Z,99.90
2017-07-17T01:39:09.444Z,99.90
2017-07-17T01:41:37.863Z,99.90
2017-07-17T01:44:07.068Z,99.90
2017-07-17T01:46:36.203Z,99.90
2017-07-17T01:49:05.297Z,99.90
2017-07-17T01:51:33.730Z,99.90
2017-07-17T01:54:02.160Z,99.90
2017-07-17T01:56:29.895Z,99.90
2017-07-17T01:58:59.079Z,99.90
2017-07-17T02:01:27.760Z,99.90
2017-07-17T02:03:56.261Z,99.90
2017-07-17T02:06:25.155Z,99.90
2017-07-17T02:08:54.343Z,99.90
2017-07-17T02:11:23.534Z,99.90
2017-07-17T02:13:52.753Z,99.90
2017-07-17T02:16:21.945Z,99.90
2017-07-17T02:18:51.155Z,99.90
2017-07-17T02:21:19.632Z,99.90
2017-07-17T02:23:48.831Z,99.90
2017-07-17T02:26:18.036Z,99.90
2017-07-17T02:28:46.519Z,99.90
2017-07-17T02:31:14.939Z,99.90
2017-07-17T02:33:44.330Z,99.90
2017-07-17T02:36:12.755Z,99.90
2017-07-17T02:38:41.181Z,99.90
2017-07-17T02:41:09.611Z,99.90
2017-07-17T02:43:38.861Z,99.90
2017-07-17T02:46:07.288Z,99.90
2017-07-17T02:48:35.715Z,99.90
2017-07-17T02:51:04.176Z,99.90
2017-07-17T02:53:32.680Z,99.90
2017-07-17T02:56:01.129Z,99.90
2017-07-17T02:58:29.556Z,99.90
2017-07-17T03:00:57.991Z,99.90
2017-07-17T03:03:26.421Z,99.90
2017-07-17T03:05:54.851Z,99.90
2017-07-17T03:08:23.316Z,99.90
2017-07-17T03:10:51.742Z,99.90
2017-07-17T03:13:20.946Z,99.90
2017-07-17T03:15:50.151Z,99.90
2017-07-17T03:18:18.589Z,99.90
2017-07-17T03:20:46.655Z,99.90
2017-07-17T03:23:14.375Z,99.90
2017-07-17T03:25:43.577Z,99.90
2017-07-17T03:28:12.002Z,99.90
2017-07-17T03:30:40.433Z,99.90
2017-07-17T03:33:08.812Z,99.90
2017-07-17T03:35:37.263Z,99.90
2017-07-17T03:38:06.091Z,99.90
2017-07-17T03:40:34.515Z,99.90
2017-07-17T03:43:02.950Z,99.90
2017-07-17T03:45:31.378Z,99.90
2017-07-17T03:47:59.807Z,99.90
2017-07-17T03:50:28.243Z,99.90
2017-07-17T03:52:56.696Z,99.90
2017-07-17T03:55:25.123Z,99.90
2017-07-17T03:57:54.306Z,99.90
2017-07-17T04:00:22.751Z,99.90
2017-07-17T04:02:51.443Z,99.90
2017-07-17T04:05:19.889Z,99.90
2017-07-17T04:07:49.079Z,99.90
2017-07-17T04:10:18.203Z,99.90
2017-07-17T04:12:46.907Z,99.90
2017-07-17T04:15:15.327Z,99.90
2017-07-17T04:17:43.773Z,99.90
2017-07-17T04:20:12.197Z,99.90
2017-07-17T04:22:40.877Z,99.90
2017-07-17T04:25:09.318Z,99.90
2017-07-17T04:27:37.762Z,99.90
2017-07-17T04:30:06.963Z,99.90
2017-07-17T04:32:35.492Z,99.90
2017-07-17T04:35:03.939Z,99.90
2017-07-17T04:37:32.384Z,99.90
2017-07-17T04:40:00.863Z,99.90
2017-07-17T04:42:29.364Z,99.90
2017-07-17T04:44:57.837Z,99.90
2017-07-17T04:47:26.279Z,99.90
2017-07-17T04:49:54.803Z,99.90
2017-07-17T04:52:23.418Z,99.90
2017-07-17T04:54:52.099Z,99.90
2017-07-17T04:57:21.304Z,99.90
2017-07-17T04:59:50.415Z,99.90
2017-07-17T05:02:19.617Z,99.90
2017-07-17T05:04:48.063Z,99.90
2017-07-17T05:07:17.309Z,99.90
2017-07-17T05:09:46.121Z,99.90
2017-07-17T05:12:14.580Z,99.90
2017-07-17T05:14:43.678Z,99.90
2017-07-17T05:17:12.103Z,99.90
2017-07-17T05:19:40.518Z,99.90
2017-07-17T05:22:08.956Z,99.90
2017-07-17T05:24:37.391Z,99.90
2017-07-17T05:27:05.840Z,99.90
2017-07-17T05:29:34.855Z,99.90
2017-07-17T05:32:03.113Z,99.90
2017-07-17T05:34:32.315Z,99.90
2017-07-17T05:37:01.526Z,99.90
2017-07-17T05:39:30.723Z,99.90
2017-07-17T05:41:59.915Z,99.90
2017-07-17T05:44:28.756Z,99.90
2017-07-17T05:46:58.201Z,99.90
2017-07-17T05:49:26.699Z,99.90
2017-07-17T05:51:55.934Z,99.90
2017-07-17T05:54:24.349Z,99.90
2017-07-17T05:56:53.052Z,99.90
2017-07-17T05:59:21.859Z,99.90
2017-07-17T06:01:50.531Z,99.90
2017-07-17T06:04:19.166Z,99.90
2017-07-17T06:06:47.595Z,99.90
2017-07-17T06:09:16.040Z,99.90
2017-07-17T06:11:44.464Z,99.90
2017-07-17T06:14:13.665Z,99.90
2017-07-17T06:16:43.217Z,99.90
2017-07-17T06:19:11.679Z,99.90
2017-07-17T06:21:40.119Z,99.90
2017-07-17T06:24:08.630Z,99.90
2017-07-17T06:26:37.464Z,99.90
2017-07-17T06:29:05.895Z,99.90
2017-07-17T06:31:34.739Z,99.90
2017-07-17T06:34:03.182Z,99.90
2017-07-17T06:36:31.619Z,99.90
2017-07-17T06:39:00.059Z,99.90
2017-07-17T06:41:32.389Z,99.90
2017-07-17T06:44:00.843Z,99.90
2017-07-17T06:46:29.363Z,99.90
2017-07-17T06:48:57.783Z,99.90
2017-07-17T06:51:26.223Z,99.90
2017-07-17T06:53:54.783Z,99.90
2017-07-17T06:56:23.303Z,99.90
2017-07-17T06:58:52.181Z,99.90
2017-07-17T07:01:21.495Z,99.90
2017-07-17T07:03:49.919Z,99.90
2017-07-17T07:06:18.355Z,99.90
2017-07-17T07:08:46.799Z,99.90
2017-07-17T07:11:15.873Z,99.90
2017-07-17T07:13:44.304Z,99.90
2017-07-17T07:16:13.141Z,99.90
2017-07-17T07:18:41.568Z,99.90
2017-07-17T07:21:10.423Z,99.90
2017-07-17T07:23:39.578Z,99.90
2017-07-17T07:26:08.785Z,99.90
2017-07-17T07:28:37.972Z,99.90
2017-07-17T07:31:07.287Z,99.90
2017-07-17T07:33:36.484Z,99.90
2017-07-17T07:36:05.428Z,99.90
2017-07-17T07:38:33.903Z,99.90
2017-07-17T07:41:02.727Z,99.90
2017-07-17T07:43:31.172Z,99.90
2017-07-17T07:46:00.004Z,99.90
2017-07-17T07:48:28.463Z,99.90
2017-07-17T07:50:58.543Z,99.90
2017-07-17T07:53:27.640Z,99.90
2017-07-17T07:55:56.735Z,99.90
2017-07-17T07:58:25.824Z,99.90
2017-07-17T08:00:54.263Z,99.90
2017-07-17T08:03:22.695Z,99.90
2017-07-17T08:05:51.111Z,99.90
2017-07-17T08:08:19.944Z,99.90
2017-07-17T08:10:49.177Z,99.90
2017-07-17T08:13:17.990Z,99.90
2017-07-17T08:15:46.448Z,99.90
2017-07-17T08:18:14.893Z,99.90
2017-07-17T08:20:43.594Z,99.90
2017-07-17T08:23:12.787Z,99.90
2017-07-17T08:25:41.991Z,99.90
2017-07-17T08:28:10.416Z,99.90
2017-07-17T08:30:39.128Z,99.90
2017-07-17T08:33:07.579Z,99.90
2017-07-17T08:35:36.492Z,99.90
2017-07-17T08:38:05.208Z,99.90
2017-07-17T08:40:34.403Z,99.90
2017-07-17T08:43:03.629Z,99.90
2017-07-17T08:45:32.050Z,99.90
2017-07-17T08:48:00.488Z,99.90
2017-07-17T08:50:28.967Z,99.90
2017-07-17T08:52:58.035Z,99.90
2017-07-17T08:55:27.909Z,99.90
2017-07-17T08:57:57.386Z,99.90
2017-07-17T09:00:25.845Z,99.90
2017-07-17T09:02:55.709Z,99.90
2017-07-17T09:05:24.128Z,99.90
2017-07-17T09:07:52.566Z,99.90
2017-07-17T09:10:20.993Z,99.90
2017-07-17T09:12:49.448Z,99.90
2017-07-17T09:15:18.272Z,99.90
2017-07-17T09:17:46.784Z,99.90
2017-07-17T09:20:15.628Z,99.90
2017-07-17T09:22:44.710Z,99.90
2017-07-17T09:25:13.155Z,99.90
2017-07-17T09:27:41.583Z,99.90
2017-07-17T09:30:10.029Z,99.90
2017-07-17T09:32:38.451Z,99.90
2017-07-17T09:35:06.896Z,99.90
2017-07-17T09:37:35.309Z,99.90
2017-07-17T09:40:04.505Z,99.90
2017-07-17T09:42:32.933Z,99.90
2017-07-17T09:45:01.351Z,99.90
2017-07-17T09:47:29.788Z,99.90
2017-07-17T09:49:58.229Z,99.90
2017-07-17T09:52:26.673Z,99.90
2017-07-17T09:54:55.102Z,99.90
2017-07-17T09:57:23.559Z,99.90
2017-07-17T09:59:51.992Z,99.90
2017-07-17T10:02:20.817Z,99.90
2017-07-17T10:04:50.029Z,99.90
2017-07-17T10:07:18.459Z,99.90
2017-07-17T10:09:47.678Z,99.90
2017-07-17T10:12:16.224Z,99.90
2017-07-17T10:14:44.665Z,99.90
2017-07-17T10:17:12.895Z,99.90
2017-07-17T10:19:42.311Z,99.90
2017-07-17T10:22:11.596Z,99.90
2017-07-17T10:24:40.031Z,99.90
2017-07-17T10:27:08.471Z,99.90
2017-07-17T10:29:37.715Z,99.90
2017-07-17T10:32:06.178Z,99.90
2017-07-17T10:34:34.618Z,99.50
2017-07-17T10:37:03.306Z,99.60
2017-07-17T10:39:31.770Z,97.20
2017-07-17T10:42:00.243Z,97.40
2017-07-17T10:44:28.708Z,96.90
2017-07-17T10:46:57.135Z,94.90
2017-07-17T10:49:25.639Z,98.60
2017-07-17T10:51:54.824Z,93.00
2017-07-17T10:54:24.023Z,94.80
2017-07-17T10:56:52.455Z,92.70
2017-07-17T10:59:21.923Z,92.60
2017-07-17T11:01:51.140Z,94.40
2017-07-17T11:04:19.600Z,91.70
2017-07-17T11:06:48.817Z,93.30
2017-07-17T11:09:17.287Z,93.20
2017-07-17T11:11:46.488Z,88.50
2017-07-17T11:14:15.704Z,90.00
2017-07-17T11:16:44.143Z,86.50
2017-07-17T11:19:12.567Z,77.90
2017-07-17T11:21:41.011Z,79.20
2017-07-17T11:24:09.529Z,81.30
2017-07-17T11:26:37.967Z,82.80
2017-07-17T11:29:06.392Z,86.50
2017-07-17T11:31:34.823Z,75.90
2017-07-17T11:34:03.270Z,79.10
2017-07-17T11:36:31.684Z,79.10
2017-07-17T11:39:00.134Z,79.90
2017-07-17T11:41:28.563Z,76.90
2017-07-17T11:43:56.988Z,89.60
2017-07-17T11:56:41.856Z,74.80
2017-07-17T11:59:10.483Z,82.50
2017-07-17T12:01:39.699Z,79.40
2017-07-17T12:04:08.139Z,79.00
2017-07-17T12:06:36.559Z,78.10
2017-07-17T12:09:04.418Z,76.70
2017-07-17T12:11:32.844Z,76.90
2017-07-17T12:14:01.297Z,73.30
2017-07-17T12:16:29.728Z,69.50
2017-07-17T12:18:58.410Z,70.00
2017-07-17T12:21:26.853Z,70.70
2017-07-17T12:23:55.271Z,73.30
2017-07-17T12:26:23.754Z,76.10
2017-07-17T12:28:51.999Z,68.10
2017-07-17T12:31:20.439Z,63.10
2017-07-17T12:33:49.644Z,70.00
2017-07-17T12:36:18.962Z,67.60
2017-07-17T12:38:47.440Z,67.40
2017-07-17T12:41:15.864Z,66.10
2017-07-17T12:43:44.411Z,63.00
2017-07-17T12:46:12.829Z,64.80
2017-07-17T12:48:41.526Z,64.00
2017-07-17T12:51:10.159Z,62.60
2017-07-17T12:53:39.347Z,63.00
2017-07-17T12:56:08.366Z,64.90
2017-07-17T12:58:36.851Z,64.50
2017-07-17T13:01:05.283Z,63.60
2017-07-17T13:03:33.723Z,62.40
2017-07-17T13:06:02.146Z,62.60
2017-07-17T13:08:30.583Z,59.30
2017-07-17T13:10:59.003Z,61.10
2017-07-17T13:13:27.583Z,59.00
2017-07-17T13:15:56.307Z,57.20
2017-07-17T13:18:24.726Z,57.80
2017-07-17T13:20:53.373Z,58.00
2017-07-17T13:23:22.571Z,55.50
2017-07-17T13:25:51.751Z,58.20
2017-07-17T13:28:20.267Z,58.00
2017-07-17T13:30:48.691Z,55.20
2017-07-17T13:33:17.140Z,54.40
2017-07-17T13:35:45.744Z,54.20
2017-07-17T13:38:14.160Z,56.00
2017-07-17T13:40:42.660Z,55.30
2017-07-17T13:43:11.856Z,55.40
2017-07-17T13:45:41.058Z,55.10
2017-07-17T13:48:10.300Z,56.30
2017-07-17T13:50:38.985Z,56.30
2017-07-17T13:53:07.504Z,57.10
2017-07-17T13:55:36.714Z,56.60
2017-07-17T13:58:05.157Z,57.20
2017-07-17T14:00:33.616Z,58.00
2017-07-17T14:03:02.045Z,56.30
2017-07-17T14:05:31.242Z,54.40
2017-07-17T14:07:59.685Z,54.90
2017-07-17T14:10:28.115Z,56.70
2017-07-17T14:12:56.580Z,57.40
2017-07-17T14:15:24.995Z,54.70
2017-07-17T14:17:54.182Z,51.30
2017-07-17T14:20:22.639Z,51.30
2017-07-17T14:22:51.802Z,50.70
2017-07-17T14:25:20.251Z,51.20
2017-07-17T14:27:48.660Z,51.60
2017-07-17T14:30:17.099Z,51.50
2017-07-17T14:32:45.803Z,50.60
2017-07-17T14:35:14.224Z,50.70
2017-07-17T14:37:42.680Z,52.00
2017-07-17T14:40:11.104Z,53.50
2017-07-17T14:42:39.531Z,54.00
2017-07-17T14:45:08.715Z,57.40
2017-07-17T14:47:37.908Z,57.30
2017-07-17T14:50:06.576Z,56.40
2017-07-17T14:52:35.004Z,56.00
2017-07-17T14:55:04.191Z,60.80
2017-07-17T14:57:33.435Z,53.60
2017-07-17T15:00:01.861Z,54.00
2017-07-17T15:02:30.977Z,52.20
2017-07-17T15:05:00.178Z,53.90
2017-07-17T15:07:29.413Z,55.30
2017-07-17T15:09:58.687Z,55.40
2017-07-17T15:12:27.119Z,56.70
2017-07-17T15:14:56.249Z,55.30
2017-07-17T15:17:24.854Z,56.60
2017-07-17T15:19:53.294Z,52.40
2017-07-17T15:22:21.742Z,52.90
2017-07-17T15:24:50.188Z,52.70
2017-07-17T15:27:19.389Z,50.00
2017-07-17T15:29:48.622Z,52.40
2017-07-17T15:32:17.757Z,48.90
2017-07-17T15:34:46.868Z,48.60
2017-07-17T15:37:16.071Z,50.10
2017-07-17T15:39:45.272Z,48.40
2017-07-17T15:42:14.478Z,50.70
2017-07-17T15:44:43.696Z,51.00
2017-07-17T15:47:12.764Z,51.90
2017-07-17T15:49:42.080Z,53.60
2017-07-17T15:52:11.220Z,53.30
2017-07-17T15:54:39.640Z,55.00
2017-07-17T15:57:08.090Z,50.40
2017-07-17T15:59:36.558Z,51.10
2017-07-17T16:02:04.983Z,51.20
2017-07-17T16:04:33.437Z,48.00
2017-07-17T16:07:01.876Z,50.10
2017-07-17T16:09:30.338Z,47.60
2017-07-17T16:11:58.792Z,48.40
2017-07-17T16:14:27.220Z,48.40
2017-07-17T16:16:55.707Z,49.40
2017-07-17T16:19:24.139Z,48.10
2017-07-17T16:21:52.596Z,48.00
2017-07-17T16:24:21.744Z,47.70
2017-07-17T16:26:50.940Z,53.30
2017-07-17T16:29:20.159Z,53.60
2017-07-17T16:31:49.368Z,49.50
2017-07-17T16:34:17.824Z,50.40
2017-07-17T16:36:47.072Z,50.80
2017-07-17T16:39:15.507Z,49.90
2017-07-17T16:41:44.715Z,48.90
2017-07-17T16:44:14.153Z,50.20
2017-07-17T16:46:42.723Z,49.20
2017-07-17T16:49:11.152Z,49.30
2017-07-17T16:51:39.593Z,44.90
2017-07-17T16:54:09.460Z,47.90
2017-07-17T16:56:37.923Z,47.90
2017-07-17T16:59:06.381Z,49.10
2017-07-17T17:01:35.030Z,48.50
2017-07-17T17:04:03.893Z,46.80
2017-07-17T17:06:32.318Z,48.00
2017-07-17T17:09:00.768Z,46.70
2017-07-17T17:11:29.892Z,47.40
2017-07-17T17:13:59.420Z,44.30
2017-07-17T17:16:28.248Z,47.10
2017-07-17T17:18:57.062Z,46.20
2017-07-17T17:21:26.405Z,49.60
2017-07-17T17:23:55.244Z,49.20
2017-07-17T17:26:23.694Z,51.20
2017-07-17T17:28:52.195Z,51.00
2017-07-17T17:31:21.024Z,48.90
2017-07-17T17:33:49.464Z,50.10
2017-07-17T17:36:18.292Z,50.70
2017-07-17T17:38:46.702Z,51.00
2017-07-17T17:41:15.132Z,50.70
2017-07-17T17:43:43.548Z,51.10
2017-07-17T17:46:11.997Z,51.70
2017-07-17T17:48:40.430Z,52.20
2017-07-17T17:51:08.857Z,50.30
2017-07-17T17:53:38.835Z,51.20
2017-07-17T17:56:07.644Z,47.00
2017-07-17T17:58:36.092Z,48.30
2017-07-17T18:01:04.527Z,50.50
2017-07-17T18:03:33.375Z,50.90
2017-07-17T18:06:01.787Z,51.80
2017-07-17T18:08:30.237Z,53.50
2017-07-17T18:10:59.466Z,53.60
2017-07-17T18:13:28.310Z,54.40
2017-07-17T18:15:57.127Z,55.20
2017-07-17T18:18:26.358Z,56.00
2017-07-17T18:20:55.192Z,56.60
2017-07-17T18:23:24.043Z,58.00
2017-07-17T18:25:53.237Z,58.40
2017-07-17T18:28:22.057Z,59.50
2017-07-17T18:30:50.893Z,58.80
2017-07-17T18:33:20.116Z,59.50
2017-07-17T18:35:48.931Z,59.70
2017-07-17T18:38:17.782Z,59.70
2017-07-17T18:40:46.296Z,61.40
2017-07-17T18:43:15.515Z,62.40
2017-07-17T18:45:43.969Z,62.20
2017-07-17T18:48:12.783Z,63.30
2017-07-17T18:50:41.642Z,65.50
2017-07-17T18:53:10.839Z,65.00
2017-07-17T18:55:39.667Z,65.90
2017-07-17T18:58:08.485Z,67.20
2017-07-17T19:00:37.699Z,68.20
2017-07-17T19:03:06.891Z,69.00
2017-07-17T19:05:35.351Z,70.80
2017-07-17T19:08:04.545Z,71.50
2017-07-17T19:10:34.435Z,73.30
2017-07-17T19:13:03.275Z,74.00
2017-07-17T19:15:32.111Z,74.80
2017-07-17T19:18:01.413Z,75.70
2017-07-17T19:20:30.240Z,76.40
2017-07-17T19:22:59.109Z,76.70
2017-07-17T19:25:27.923Z,77.10
2017-07-17T19:27:57.163Z,77.90
2017-07-17T19:30:25.974Z,79.40
2017-07-17T19:32:55.147Z,80.10
2017-07-17T19:35:23.995Z,81.90
2017-07-17T19:37:52.836Z,81.90
2017-07-17T19:40:22.042Z,79.90
2017-07-17T19:42:50.899Z,84.00
2017-07-17T19:45:19.757Z,85.90
2017-07-17T19:47:48.585Z,85.50
2017-07-17T19:50:17.023Z,86.50
2017-07-17T19:52:45.871Z,87.60
2017-07-17T19:55:14.707Z,88.10
2017-07-17T19:57:43.549Z,88.90
2017-07-17T20:00:12.356Z,89.70
2017-07-17T20:02:41.589Z,90.40
2017-07-17T20:05:10.407Z,91.00
2017-07-17T20:07:39.240Z,91.60
2017-07-17T20:10:08.487Z,92.50
2017-07-17T20:12:37.292Z,92.60
2017-07-17T20:15:06.144Z,92.90
2017-07-17T20:17:35.352Z,93.40
2017-07-17T20:20:04.185Z,94.20
2017-07-17T20:22:33.349Z,94.20
2017-07-17T20:25:02.183Z,94.70
2017-07-17T20:27:31.031Z,95.20
2017-07-17T20:29:59.844Z,95.70
2017-07-17T20:32:29.066Z,96.10
2017-07-17T20:34:57.897Z,96.10
2017-07-17T20:37:26.746Z,96.30
2017-07-17T20:39:55.859Z,96.60
2017-07-17T20:42:25.093Z,96.70
2017-07-17T20:44:54.960Z,97.50
2017-07-17T20:47:23.780Z,97.80
2017-07-17T20:49:52.602Z,98.40
2017-07-17T20:52:21.799Z,99.30
2017-07-17T20:54:50.606Z,99.70
2017-07-17T20:57:19.814Z,99.90
2017-07-17T20:59:48.663Z,99.90
2017-07-17T21:02:17.501Z,99.90
2017-07-17T21:04:46.703Z,99.90
2017-07-17T21:07:15.535Z,99.90
2017-07-17T21:09:45.462Z,99.90
2017-07-17T21:12:14.296Z,99.90
2017-07-17T21:14:43.495Z,99.90
2017-07-17T21:17:12.315Z,99.90
2017-07-17T21:19:41.138Z,99.90
2017-07-17T21:22:10.382Z,99.90
2017-07-17T21:24:39.500Z,99.90
2017-07-17T21:27:08.996Z,99.90
2017-07-17T21:29:38.198Z,99.90
2017-07-17T21:32:07.053Z,99.90
2017-07-17T21:34:35.885Z,99.90
2017-07-17T21:37:05.188Z,99.90
2017-07-17T21:39:34.023Z,99.90
2017-07-17T21:42:02.856Z,99.90
2017-07-17T21:44:32.064Z,99.90
2017-07-17T21:47:00.871Z,99.90
2017-07-17T21:49:30.787Z,99.90
2017-07-17T21:51:59.586Z,99.90
2017-07-17T21:54:28.006Z,99.90
2017-07-17T21:56:56.831Z,99.90
2017-07-17T21:59:25.652Z,99.90
2017-07-17T22:01:54.479Z,99.90
2017-07-17T22:04:23.683Z,99.90
2017-07-17T22:06:52.985Z,99.90
2017-07-17T22:09:22.495Z,99.90
2017-07-17T22:11:51.299Z,99.90
2017-07-17T22:14:20.635Z,99.90
2017-07-17T22:16:49.447Z,99.90
2017-07-17T22:19:18.347Z,99.90
2017-07-17T22:21:47.251Z,99.90
2017-07-17T22:24:16.436Z,99.90
2017-07-17T22:26:45.282Z,99.90
2017-07-17T22:29:14.095Z,99.90
2017-07-17T22:31:43.311Z,99.90
2017-07-17T22:34:12.149Z,99.90
2017-07-17T22:36:41.022Z,99.90
2017-07-17T22:39:10.230Z,99.90
2017-07-17T22:41:39.092Z,99.90
2017-07-17T22:44:07.925Z,99.90
2017-07-17T22:46:37.121Z,99.90
2017-07-17T22:49:05.963Z,99.90
2017-07-17T22:51:34.798Z,99.90
2017-07-17T22:54:03.924Z,99.90
2017-07-17T22:56:33.824Z,99.90
2017-07-17T22:59:02.676Z,99.90
2017-07-17T23:01:31.491Z,99.90
2017-07-17T23:04:00.692Z,99.90
2017-07-17T23:06:29.505Z,99.90
2017-07-17T23:08:58.323Z,99.90
2017-07-17T23:11:27.527Z,99.90
2017-07-17T23:13:56.341Z,99.90
2017-07-17T23:16:25.546Z,99.90
2017-07-17T23:18:55.487Z,99.90
2017-07-17T23:21:24.352Z,99.90
2017-07-17T23:23:53.161Z,99.90
2017-07-17T23:26:22.352Z,99.90
2017-07-17T23:28:51.468Z,99.90
2017-07-17T23:31:21.343Z,99.90
2017-07-17T23:33:50.170Z,99.90
2017-07-17T23:36:19.355Z,99.90
2017-07-17T23:38:48.188Z,99.90
2017-07-17T23:41:17.016Z,99.90
2017-07-17T23:43:46.205Z,99.90
2017-07-17T23:46:15.035Z,99.90
2017-07-17T23:48:43.852Z,99.90
2017-07-17T23:51:12.972Z,99.90
2017-07-17T23:53:41.784Z,99.90
2017-07-17T23:56:10.992Z,99.90
2017-07-17T23:58:39.804Z,99.90
